Terminal Aerodrome Forecast
Issued by NWS

Home | Current Version | Previous Version | Text Only | Print | Product List | Glossary On
Versions: 1 2 3 4 5 6 7 8 9 10 11 12 13
632
FTUS46 KMTR 221723
TAFOAK
TAF
KOAK 221723Z 2218/2324 30007KT P6SM FEW020 SCT045 SCT250
     FM222100 28014G22KT P6SM FEW025 FEW050 SCT250
     FM230100 29018G25KT P6SM FEW035 FEW050 FEW250
     FM230700 29014KT P6SM FEW030 FEW250
     FM231000 30009KT P6SM FEW250
     FM231500 33006KT P6SM SKC
     FM232100 31010KT P6SM SKC=

USA.gov is the U.S. government's official web portal to all federal, state and local government web resources and services.